sensor_id;sensor_type;location;lat;lon;timestamp;P1;durP1;ratioP1;P2;durP2;ratioP2
15102;SDS011;7652;53.584;9.998;2024-02-15T00:02:30;18.63;;;12.40;;
15102;SDS011;7652;53.584;9.998;2024-02-15T00:05:53;17.30;;;11.87;;
15102;SDS011;7652;53.584;9.998;2024-02-15T00:09:14;16.83;;;11.87;;
15102;SDS011;7652;53.584;9.998;2024-02-15T00:12:36;15.90;;;12.40;;
15102;SDS011;7652;53.584;9.998;2024-02-15T00:15:58;15.93;;;12.43;;
15102;SDS011;7652;53.584;9.998;2024-02-15T00:19:20;16.80;;;12.80;;
15102;SDS011;7652;53.584;9.998;2024-02-15T00:22:44;16.50;;;12.30;;
15102;SDS011;7652;53.584;9.998;2024-02-15T00:26:07;15.97;;;12.47;;
15102;SDS011;7652;53.584;9.998;2024-02-15T00:29:32;19.00;;;14.00;;
15102;SDS011;7652;53.584;9.998;2024-02-15T00:32:54;16.87;;;13.60;;
15102;SDS011;7652;53.584;9.998;2024-02-15T00:36:16;17.57;;;14.23;;
15102;SDS011;7652;53.584;9.998;2024-02-15T00:39:40;22.17;;;15.60;;
15102;SDS011;7652;53.584;9.998;2024-02-15T00:43:02;19.20;;;14.87;;
15102;SDS011;7652;53.584;9.998;2024-02-15T00:46:24;21.27;;;15.97;;
15102;SDS011;7652;53.584;9.998;2024-02-15T00:49:47;20.57;;;15.77;;
15102;SDS011;7652;53.584;9.998;2024-02-15T00:53:10;20.17;;;15.40;;
15102;SDS011;7652;53.584;9.998;2024-02-15T00:56:33;21.07;;;16.07;;
15102;SDS011;7652;53.584;9.998;2024-02-15T00:59:54;22.00;;;17.17;;
15102;SDS011;7652;53.584;9.998;2024-02-15T01:03:16;24.33;;;17.23;;
15102;SDS011;7652;53.584;9.998;2024-02-15T01:06:37;22.93;;;16.90;;
15102;SDS011;7652;53.584;9.998;2024-02-15T01:09:59;21.00;;;17.03;;
15102;SDS011;7652;53.584;9.998;2024-02-15T01:13:22;21.73;;;17.73;;
15102;SDS011;7652;53.584;9.998;2024-02-15T01:16:43;23.30;;;18.40;;
15102;SDS011;7652;53.584;9.998;2024-02-15T01:20:07;21.57;;;17.30;;
15102;SDS011;7652;53.584;9.998;2024-02-15T01:23:29;24.53;;;18.17;;
15102;SDS011;7652;53.584;9.998;2024-02-15T01:26:50;23.67;;;17.27;;
15102;SDS011;7652;53.584;9.998;2024-02-15T01:30:15;23.17;;;17.87;;
15102;SDS011;7652;53.584;9.998;2024-02-15T01:33:37;21.50;;;18.00;;
15102;SDS011;7652;53.584;9.998;2024-02-15T01:36:59;21.00;;;16.77;;
15102;SDS011;7652;53.584;9.998;2024-02-15T01:40:21;23.30;;;18.30;;
15102;SDS011;7652;53.584;9.998;2024-02-15T01:43:43;23.20;;;17.67;;
15102;SDS011;7652;53.584;9.998;2024-02-15T01:47:06;20.93;;;17.17;;
15102;SDS011;7652;53.584;9.998;2024-02-15T01:50:28;23.27;;;17.73;;
15102;SDS011;7652;53.584;9.998;2024-02-15T01:53:52;26.10;;;18.37;;
15102;SDS011;7652;53.584;9.998;2024-02-15T01:57:16;22.33;;;16.53;;
15102;SDS011;7652;53.584;9.998;2024-02-15T02:00:40;21.53;;;17.17;;
15102;SDS011;7652;53.584;9.998;2024-02-15T02:04:04;22.03;;;17.70;;
15102;SDS011;7652;53.584;9.998;2024-02-15T02:07:26;21.93;;;17.23;;
15102;SDS011;7652;53.584;9.998;2024-02-15T02:10:47;23.10;;;18.90;;
15102;SDS011;7652;53.584;9.998;2024-02-15T02:14:11;23.40;;;17.43;;
15102;SDS011;7652;53.584;9.998;2024-02-15T02:17:33;29.70;;;18.10;;
15102;SDS011;7652;53.584;9.998;2024-02-15T02:20:56;20.53;;;16.70;;
15102;SDS011;7652;53.584;9.998;2024-02-15T02:24:20;21.70;;;17.90;;
15102;SDS011;7652;53.584;9.998;2024-02-15T02:27:44;21.00;;;17.40;;
15102;SDS011;7652;53.584;9.998;2024-02-15T02:31:07;22.37;;;17.03;;
15102;SDS011;7652;53.584;9.998;2024-02-15T02:34:31;21.80;;;17.57;;
15102;SDS011;7652;53.584;9.998;2024-02-15T02:37:53;23.50;;;17.63;;
15102;SDS011;7652;53.584;9.998;2024-02-15T02:41:14;24.97;;;17.47;;
15102;SDS011;7652;53.584;9.998;2024-02-15T02:44:39;20.87;;;17.03;;
15102;SDS011;7652;53.584;9.998;2024-02-15T02:48:00;19.50;;;16.57;;
15102;SDS011;7652;53.584;9.998;2024-02-15T02:51:22;21.63;;;17.30;;
15102;SDS011;7652;53.584;9.998;2024-02-15T02:54:44;20.77;;;16.13;;
15102;SDS011;7652;53.584;9.998;2024-02-15T02:58:06;21.10;;;16.90;;
15102;SDS011;7652;53.584;9.998;2024-02-15T03:01:29;22.20;;;17.00;;
15102;SDS011;7652;53.584;9.998;2024-02-15T03:04:50;20.10;;;16.20;;
15102;SDS011;7652;53.584;9.998;2024-02-15T03:08:13;23.23;;;17.47;;
15102;SDS011;7652;53.584;9.998;2024-02-15T03:11:37;22.53;;;17.33;;
15102;SDS011;7652;53.584;9.998;2024-02-15T03:14:58;22.03;;;16.87;;
15102;SDS011;7652;53.584;9.998;2024-02-15T03:18:21;20.50;;;15.97;;
15102;SDS011;7652;53.584;9.998;2024-02-15T03:21:44;21.57;;;16.37;;
15102;SDS011;7652;53.584;9.998;2024-02-15T03:25:06;17.73;;;14.50;;
15102;SDS011;7652;53.584;9.998;2024-02-15T03:28:29;18.77;;;15.27;;
15102;SDS011;7652;53.584;9.998;2024-02-15T03:31:50;19.00;;;14.23;;
15102;SDS011;7652;53.584;9.998;2024-02-15T03:35:15;16.83;;;13.70;;
15102;SDS011;7652;53.584;9.998;2024-02-15T03:38:38;17.83;;;13.13;;
15102;SDS011;7652;53.584;9.998;2024-02-15T03:42:01;17.23;;;13.13;;
15102;SDS011;7652;53.584;9.998;2024-02-15T03:45:24;17.70;;;13.07;;
15102;SDS011;7652;53.584;9.998;2024-02-15T03:48:47;18.07;;;13.37;;
15102;SDS011;7652;53.584;9.998;2024-02-15T03:52:10;17.87;;;13.67;;
15102;SDS011;7652;53.584;9.998;2024-02-15T03:55:31;19.00;;;13.90;;
15102;SDS011;7652;53.584;9.998;2024-02-15T03:58:56;20.47;;;14.33;;
15102;SDS011;7652;53.584;9.998;2024-02-15T04:02:18;18.57;;;14.20;;
15102;SDS011;7652;53.584;9.998;2024-02-15T04:05:40;22.07;;;15.60;;
15102;SDS011;7652;53.584;9.998;2024-02-15T04:09:03;22.67;;;16.43;;
15102;SDS011;7652;53.584;9.998;2024-02-15T04:12:24;22.80;;;16.90;;
15102;SDS011;7652;53.584;9.998;2024-02-15T04:15:46;21.20;;;15.17;;
15102;SDS011;7652;53.584;9.998;2024-02-15T04:19:10;23.87;;;16.63;;
15102;SDS011;7652;53.584;9.998;2024-02-15T04:22:32;25.13;;;16.23;;
15102;SDS011;7652;53.584;9.998;2024-02-15T04:25:58;28.07;;;16.77;;
15102;SDS011;7652;53.584;9.998;2024-02-15T04:29:20;22.10;;;16.10;;
15102;SDS011;7652;53.584;9.998;2024-02-15T04:32:42;19.37;;;14.73;;
15102;SDS011;7652;53.584;9.998;2024-02-15T04:36:04;24.73;;;16.47;;
15102;SDS011;7652;53.584;9.998;2024-02-15T04:39:27;24.33;;;16.50;;
15102;SDS011;7652;53.584;9.998;2024-02-15T04:42:52;27.67;;;18.07;;
15102;SDS011;7652;53.584;9.998;2024-02-15T04:46:14;24.30;;;17.73;;
15102;SDS011;7652;53.584;9.998;2024-02-15T04:49:35;24.50;;;16.87;;
15102;SDS011;7652;53.584;9.998;2024-02-15T04:52:58;22.87;;;16.27;;
15102;SDS011;7652;53.584;9.998;2024-02-15T04:56:19;26.23;;;17.23;;
15102;SDS011;7652;53.584;9.998;2024-02-15T04:59:42;27.73;;;17.93;;
15102;SDS011;7652;53.584;9.998;2024-02-15T05:03:06;23.60;;;17.37;;
15102;SDS011;7652;53.584;9.998;2024-02-15T05:06:28;25.87;;;17.40;;
15102;SDS011;7652;53.584;9.998;2024-02-15T05:09:50;27.40;;;18.17;;
15102;SDS011;7652;53.584;9.998;2024-02-15T05:13:13;26.17;;;18.00;;
15102;SDS011;7652;53.584;9.998;2024-02-15T05:16:38;27.83;;;17.77;;
15102;SDS011;7652;53.584;9.998;2024-02-15T05:20:01;25.33;;;18.00;;
15102;SDS011;7652;53.584;9.998;2024-02-15T05:23:30;28.70;;;17.77;;
15102;SDS011;7652;53.584;9.998;2024-02-15T05:26:52;28.63;;;18.63;;
15102;SDS011;7652;53.584;9.998;2024-02-15T05:30:14;26.93;;;17.47;;
15102;SDS011;7652;53.584;9.998;2024-02-15T05:33:38;25.27;;;18.37;;
15102;SDS011;7652;53.584;9.998;2024-02-15T05:37:02;26.57;;;17.77;;
15102;SDS011;7652;53.584;9.998;2024-02-15T05:40:24;25.47;;;17.97;;
15102;SDS011;7652;53.584;9.998;2024-02-15T05:43:46;26.47;;;18.07;;
15102;SDS011;7652;53.584;9.998;2024-02-15T05:47:09;24.27;;;17.23;;
15102;SDS011;7652;53.584;9.998;2024-02-15T05:50:32;26.03;;;17.10;;
15102;SDS011;7652;53.584;9.998;2024-02-15T05:53:54;23.43;;;17.30;;
15102;SDS011;7652;53.584;9.998;2024-02-15T05:57:19;28.43;;;18.07;;
15102;SDS011;7652;53.584;9.998;2024-02-15T06:00:40;27.87;;;17.80;;
15102;SDS011;7652;53.584;9.998;2024-02-15T06:04:04;28.37;;;17.57;;
15102;SDS011;7652;53.584;9.998;2024-02-15T06:07:29;27.77;;;18.37;;
15102;SDS011;7652;53.584;9.998;2024-02-15T06:10:52;26.67;;;18.70;;
15102;SDS011;7652;53.584;9.998;2024-02-15T06:14:14;28.80;;;19.07;;
15102;SDS011;7652;53.584;9.998;2024-02-15T06:17:37;30.60;;;18.73;;
15102;SDS011;7652;53.584;9.998;2024-02-15T06:20:59;28.83;;;19.67;;
15102;SDS011;7652;53.584;9.998;2024-02-15T06:24:23;31.37;;;18.37;;
15102;SDS011;7652;53.584;9.998;2024-02-15T06:27:45;29.07;;;18.47;;
15102;SDS011;7652;53.584;9.998;2024-02-15T06:31:07;27.37;;;17.83;;
15102;SDS011;7652;53.584;9.998;2024-02-15T06:34:47;32.73;;;19.30;;
15102;SDS011;7652;53.584;9.998;2024-02-15T06:38:26;29.07;;;18.70;;
15102;SDS011;7652;53.584;9.998;2024-02-15T06:42:07;30.00;;;18.23;;
15102;SDS011;7652;53.584;9.998;2024-02-15T06:45:29;29.33;;;18.43;;
15102;SDS011;7652;53.584;9.998;2024-02-15T06:48:52;36.63;;;20.03;;
15102;SDS011;7652;53.584;9.998;2024-02-15T06:52:15;36.93;;;21.40;;
15102;SDS011;7652;53.584;9.998;2024-02-15T06:55:37;40.57;;;20.87;;
15102;SDS011;7652;53.584;9.998;2024-02-15T06:59:01;33.73;;;20.60;;
15102;SDS011;7652;53.584;9.998;2024-02-15T07:02:23;33.90;;;21.47;;
15102;SDS011;7652;53.584;9.998;2024-02-15T07:05:45;35.30;;;21.17;;
15102;SDS011;7652;53.584;9.998;2024-02-15T07:09:07;34.20;;;20.20;;
15102;SDS011;7652;53.584;9.998;2024-02-15T07:12:30;35.80;;;20.70;;
15102;SDS011;7652;53.584;9.998;2024-02-15T07:15:53;33.50;;;20.40;;
15102;SDS011;7652;53.584;9.998;2024-02-15T07:19:15;35.07;;;20.40;;
15102;SDS011;7652;53.584;9.998;2024-02-15T07:22:38;28.93;;;17.30;;
15102;SDS011;7652;53.584;9.998;2024-02-15T07:25:59;30.53;;;18.13;;
15102;SDS011;7652;53.584;9.998;2024-02-15T07:29:21;31.27;;;18.47;;
15102;SDS011;7652;53.584;9.998;2024-02-15T07:32:44;30.50;;;18.53;;
15102;SDS011;7652;53.584;9.998;2024-02-15T07:36:06;30.97;;;18.17;;
15102;SDS011;7652;53.584;9.998;2024-02-15T07:39:28;30.87;;;17.63;;
15102;SDS011;7652;53.584;9.998;2024-02-15T07:42:50;27.30;;;17.53;;
15102;SDS011;7652;53.584;9.998;2024-02-15T07:46:12;30.53;;;18.37;;
15102;SDS011;7652;53.584;9.998;2024-02-15T07:49:37;27.27;;;17.27;;
15102;SDS011;7652;53.584;9.998;2024-02-15T07:52:59;28.37;;;18.20;;
15102;SDS011;7652;53.584;9.998;2024-02-15T07:56:21;27.60;;;16.13;;
15102;SDS011;7652;53.584;9.998;2024-02-15T07:59:42;28.73;;;16.80;;
15102;SDS011;7652;53.584;9.998;2024-02-15T08:03:04;26.03;;;16.73;;
15102;SDS011;7652;53.584;9.998;2024-02-15T08:06:29;24.17;;;16.00;;
15102;SDS011;7652;53.584;9.998;2024-02-15T08:09:53;25.93;;;15.70;;
15102;SDS011;7652;53.584;9.998;2024-02-15T08:13:14;26.53;;;16.70;;
15102;SDS011;7652;53.584;9.998;2024-02-15T08:16:37;23.27;;;15.67;;
15102;SDS011;7652;53.584;9.998;2024-02-15T08:20:00;24.10;;;15.87;;
15102;SDS011;7652;53.584;9.998;2024-02-15T08:23:23;23.53;;;15.80;;
15102;SDS011;7652;53.584;9.998;2024-02-15T08:26:47;21.50;;;16.07;;
15102;SDS011;7652;53.584;9.998;2024-02-15T08:30:08;22.20;;;14.97;;
15102;SDS011;7652;53.584;9.998;2024-02-15T08:33:31;21.33;;;15.13;;
15102;SDS011;7652;53.584;9.998;2024-02-15T08:36:53;20.63;;;13.97;;
15102;SDS011;7652;53.584;9.998;2024-02-15T08:40:16;19.07;;;13.57;;
15102;SDS011;7652;53.584;9.998;2024-02-15T08:43:39;18.87;;;13.87;;
15102;SDS011;7652;53.584;9.998;2024-02-15T08:47:01;18.80;;;12.93;;
15102;SDS011;7652;53.584;9.998;2024-02-15T08:50:25;16.53;;;11.97;;
15102;SDS011;7652;53.584;9.998;2024-02-15T08:53:47;13.30;;;10.73;;
15102;SDS011;7652;53.584;9.998;2024-02-15T08:57:10;14.73;;;10.10;;
15102;SDS011;7652;53.584;9.998;2024-02-15T09:00:33;12.20;;;9.03;;
15102;SDS011;7652;53.584;9.998;2024-02-15T09:03:54;11.43;;;8.33;;
15102;SDS011;7652;53.584;9.998;2024-02-15T09:07:16;10.10;;;8.17;;
15102;SDS011;7652;53.584;9.998;2024-02-15T09:10:38;9.67;;;8.60;;
15102;SDS011;7652;53.584;9.998;2024-02-15T09:14:01;11.53;;;8.00;;
15102;SDS011;7652;53.584;9.998;2024-02-15T09:17:22;9.80;;;8.17;;
15102;SDS011;7652;53.584;9.998;2024-02-15T09:20:46;10.63;;;8.90;;
15102;SDS011;7652;53.584;9.998;2024-02-15T09:24:09;10.00;;;8.80;;
15102;SDS011;7652;53.584;9.998;2024-02-15T09:27:30;10.87;;;9.20;;
15102;SDS011;7652;53.584;9.998;2024-02-15T09:30:53;10.53;;;9.43;;
15102;SDS011;7652;53.584;9.998;2024-02-15T09:34:19;9.70;;;8.70;;
15102;SDS011;7652;53.584;9.998;2024-02-15T09:37:42;14.43;;;9.93;;
15102;SDS011;7652;53.584;9.998;2024-02-15T09:41:05;12.27;;;9.90;;
15102;SDS011;7652;53.584;9.998;2024-02-15T09:44:27;10.60;;;9.47;;
15102;SDS011;7652;53.584;9.998;2024-02-15T09:47:51;12.07;;;9.63;;
15102;SDS011;7652;53.584;9.998;2024-02-15T09:51:14;11.80;;;10.03;;
15102;SDS011;7652;53.584;9.998;2024-02-15T09:54:36;12.60;;;9.63;;
15102;SDS011;7652;53.584;9.998;2024-02-15T09:58:00;13.23;;;9.90;;
15102;SDS011;7652;53.584;9.998;2024-02-15T10:01:24;11.47;;;9.17;;
15102;SDS011;7652;53.584;9.998;2024-02-15T10:04:49;12.17;;;10.37;;
15102;SDS011;7652;53.584;9.998;2024-02-15T10:08:11;14.47;;;11.30;;
15102;SDS011;7652;53.584;9.998;2024-02-15T10:11:33;10.90;;;9.30;;
15102;SDS011;7652;53.584;9.998;2024-02-15T10:14:55;16.43;;;11.10;;
15102;SDS011;7652;53.584;9.998;2024-02-15T10:18:16;14.33;;;11.37;;
15102;SDS011;7652;53.584;9.998;2024-02-15T10:21:43;14.20;;;12.67;;
15102;SDS011;7652;53.584;9.998;2024-02-15T10:25:10;15.40;;;12.17;;
15102;SDS011;7652;53.584;9.998;2024-02-15T10:28:32;16.70;;;12.07;;
15102;SDS011;7652;53.584;9.998;2024-02-15T10:31:54;14.97;;;12.30;;
15102;SDS011;7652;53.584;9.998;2024-02-15T10:35:20;13.23;;;11.87;;
15102;SDS011;7652;53.584;9.998;2024-02-15T10:38:43;14.47;;;12.57;;
15102;SDS011;7652;53.584;9.998;2024-02-15T10:42:06;16.80;;;12.57;;
15102;SDS011;7652;53.584;9.998;2024-02-15T10:45:31;16.70;;;13.00;;
15102;SDS011;7652;53.584;9.998;2024-02-15T10:48:53;15.70;;;13.23;;
15102;SDS011;7652;53.584;9.998;2024-02-15T10:52:14;21.37;;;13.77;;
15102;SDS011;7652;53.584;9.998;2024-02-15T10:55:40;16.33;;;13.87;;
15102;SDS011;7652;53.584;9.998;2024-02-15T10:59:10;16.60;;;12.93;;
15102;SDS011;7652;53.584;9.998;2024-02-15T11:02:37;17.10;;;13.27;;
15102;SDS011;7652;53.584;9.998;2024-02-15T11:06:02;16.10;;;12.93;;
15102;SDS011;7652;53.584;9.998;2024-02-15T11:09:27;22.37;;;15.03;;
15102;SDS011;7652;53.584;9.998;2024-02-15T11:12:51;18.57;;;13.33;;
15102;SDS011;7652;53.584;9.998;2024-02-15T11:16:19;20.13;;;14.83;;
15102;SDS011;7652;53.584;9.998;2024-02-15T11:20:00;19.73;;;14.30;;
15102;SDS011;7652;53.584;9.998;2024-02-15T11:23:25;19.80;;;15.20;;
15102;SDS011;7652;53.584;9.998;2024-02-15T11:26:57;20.93;;;15.70;;
15102;SDS011;7652;53.584;9.998;2024-02-15T11:30:32;21.37;;;15.27;;
15102;SDS011;7652;53.584;9.998;2024-02-15T11:33:54;21.13;;;15.73;;
15102;SDS011;7652;53.584;9.998;2024-02-15T11:41:17;22.27;;;16.77;;
15102;SDS011;7652;53.584;9.998;2024-02-15T11:44:40;23.80;;;17.83;;
15102;SDS011;7652;53.584;9.998;2024-02-15T11:48:03;22.43;;;17.70;;
15102;SDS011;7652;53.584;9.998;2024-02-15T11:51:32;22.90;;;17.93;;
15102;SDS011;7652;53.584;9.998;2024-02-15T11:55:04;26.83;;;19.53;;
15102;SDS011;7652;53.584;9.998;2024-02-15T11:58:29;24.30;;;19.17;;
15102;SDS011;7652;53.584;9.998;2024-02-15T12:02:01;27.83;;;19.90;;
15102;SDS011;7652;53.584;9.998;2024-02-15T12:05:43;31.97;;;19.77;;
15102;SDS011;7652;53.584;9.998;2024-02-15T12:09:22;28.30;;;20.47;;
15102;SDS011;7652;53.584;9.998;2024-02-15T12:13:02;27.07;;;20.50;;
15102;SDS011;7652;53.584;9.998;2024-02-15T12:16:41;26.00;;;19.63;;
15102;SDS011;7652;53.584;9.998;2024-02-15T12:20:20;25.90;;;19.07;;
15102;SDS011;7652;53.584;9.998;2024-02-15T12:23:47;26.27;;;19.40;;
15102;SDS011;7652;53.584;9.998;2024-02-15T12:27:09;24.37;;;18.37;;
15102;SDS011;7652;53.584;9.998;2024-02-15T12:30:32;23.83;;;19.17;;
15102;SDS011;7652;53.584;9.998;2024-02-15T12:34:00;22.93;;;17.47;;
15102;SDS011;7652;53.584;9.998;2024-02-15T12:37:26;19.23;;;15.97;;
15102;SDS011;7652;53.584;9.998;2024-02-15T12:40:49;17.57;;;14.37;;
15102;SDS011;7652;53.584;9.998;2024-02-15T12:44:11;17.30;;;14.53;;
15102;SDS011;7652;53.584;9.998;2024-02-15T12:47:37;16.83;;;14.90;;
15102;SDS011;7652;53.584;9.998;2024-02-15T12:50:59;22.13;;;15.83;;
15102;SDS011;7652;53.584;9.998;2024-02-15T12:54:34;18.93;;;13.80;;
15102;SDS011;7652;53.584;9.998;2024-02-15T12:58:01;15.57;;;13.43;;
15102;SDS011;7652;53.584;9.998;2024-02-15T13:01:28;14.53;;;11.90;;
15102;SDS011;7652;53.584;9.998;2024-02-15T13:04:49;13.83;;;11.63;;
15102;SDS011;7652;53.584;9.998;2024-02-15T13:08:11;13.37;;;10.90;;
15102;SDS011;7652;53.584;9.998;2024-02-15T13:11:35;11.23;;;9.83;;
15102;SDS011;7652;53.584;9.998;2024-02-15T13:14:58;10.77;;;8.87;;
15102;SDS011;7652;53.584;9.998;2024-02-15T13:18:19;10.67;;;8.20;;
15102;SDS011;7652;53.584;9.998;2024-02-15T13:21:42;7.93;;;7.13;;
15102;SDS011;7652;53.584;9.998;2024-02-15T13:25:05;8.70;;;7.30;;
15102;SDS011;7652;53.584;9.998;2024-02-15T13:28:28;7.73;;;6.93;;
15102;SDS011;7652;53.584;9.998;2024-02-15T13:31:51;7.20;;;6.50;;
15102;SDS011;7652;53.584;9.998;2024-02-15T13:35:14;10.80;;;7.37;;
15102;SDS011;7652;53.584;9.998;2024-02-15T13:38:38;7.90;;;7.13;;
15102;SDS011;7652;53.584;9.998;2024-02-15T13:41:59;8.37;;;7.57;;
15102;SDS011;7652;53.584;9.998;2024-02-15T13:45:21;8.63;;;7.80;;
15102;SDS011;7652;53.584;9.998;2024-02-15T13:48:45;10.90;;;8.03;;
15102;SDS011;7652;53.584;9.998;2024-02-15T13:52:07;9.13;;;7.80;;
15102;SDS011;7652;53.584;9.998;2024-02-15T13:55:31;10.90;;;7.93;;
15102;SDS011;7652;53.584;9.998;2024-02-15T13:58:53;8.60;;;7.77;;
15102;SDS011;7652;53.584;9.998;2024-02-15T14:02:20;9.30;;;8.27;;
15102;SDS011;7652;53.584;9.998;2024-02-15T14:05:42;13.03;;;8.77;;
15102;SDS011;7652;53.584;9.998;2024-02-15T14:09:06;10.00;;;8.43;;
15102;SDS011;7652;53.584;9.998;2024-02-15T14:12:27;12.47;;;9.33;;
15102;SDS011;7652;53.584;9.998;2024-02-15T14:15:49;12.07;;;8.37;;
15102;SDS011;7652;53.584;9.998;2024-02-15T14:19:11;9.37;;;8.47;;
15102;SDS011;7652;53.584;9.998;2024-02-15T14:22:34;8.77;;;7.63;;
15102;SDS011;7652;53.584;9.998;2024-02-15T14:25:56;8.77;;;7.97;;
15102;SDS011;7652;53.584;9.998;2024-02-15T14:29:20;10.90;;;8.10;;
15102;SDS011;7652;53.584;9.998;2024-02-15T14:32:46;9.07;;;7.73;;
15102;SDS011;7652;53.584;9.998;2024-02-15T14:36:25;7.90;;;6.70;;
15102;SDS011;7652;53.584;9.998;2024-02-15T14:39:48;9.20;;;7.10;;
15102;SDS011;7652;53.584;9.998;2024-02-15T14:43:10;7.80;;;7.00;;
15102;SDS011;7652;53.584;9.998;2024-02-15T14:46:38;10.03;;;6.97;;
15102;SDS011;7652;53.584;9.998;2024-02-15T14:50:00;7.83;;;7.03;;
15102;SDS011;7652;53.584;9.998;2024-02-15T14:53:22;9.23;;;7.03;;
15102;SDS011;7652;53.584;9.998;2024-02-15T14:56:45;7.50;;;6.77;;
15102;SDS011;7652;53.584;9.998;2024-02-15T15:00:07;9.10;;;6.60;;
15102;SDS011;7652;53.584;9.998;2024-02-15T15:03:33;8.23;;;7.33;;
15102;SDS011;7652;53.584;9.998;2024-02-15T15:06:57;9.43;;;7.20;;
15102;SDS011;7652;53.584;9.998;2024-02-15T15:10:37;8.53;;;7.70;;
15102;SDS011;7652;53.584;9.998;2024-02-15T15:14:17;8.37;;;7.50;;
15102;SDS011;7652;53.584;9.998;2024-02-15T15:17:39;10.30;;;7.43;;
15102;SDS011;7652;53.584;9.998;2024-02-15T15:21:03;9.23;;;7.40;;
15102;SDS011;7652;53.584;9.998;2024-02-15T15:24:24;9.07;;;8.00;;
15102;SDS011;7652;53.584;9.998;2024-02-15T15:27:46;7.77;;;6.97;;
15102;SDS011;7652;53.584;9.998;2024-02-15T15:31:09;9.60;;;7.93;;
15102;SDS011;7652;53.584;9.998;2024-02-15T15:34:31;9.93;;;8.43;;
15102;SDS011;7652;53.584;9.998;2024-02-15T15:37:52;9.13;;;8.07;;
15102;SDS011;7652;53.584;9.998;2024-02-15T15:41:14;8.67;;;7.73;;
15102;SDS011;7652;53.584;9.998;2024-02-15T15:44:36;8.87;;;7.87;;
15102;SDS011;7652;53.584;9.998;2024-02-15T15:47:59;11.03;;;8.80;;
15102;SDS011;7652;53.584;9.998;2024-02-15T15:51:20;8.53;;;7.67;;
15102;SDS011;7652;53.584;9.998;2024-02-15T15:54:42;10.90;;;7.77;;
15102;SDS011;7652;53.584;9.998;2024-02-15T15:58:04;9.27;;;8.47;;
15102;SDS011;7652;53.584;9.998;2024-02-15T16:01:26;9.27;;;8.27;;
15102;SDS011;7652;53.584;9.998;2024-02-15T16:04:50;8.90;;;7.93;;
15102;SDS011;7652;53.584;9.998;2024-02-15T16:08:20;14.33;;;8.43;;
15102;SDS011;7652;53.584;9.998;2024-02-15T16:11:42;7.37;;;6.67;;
15102;SDS011;7652;53.584;9.998;2024-02-15T16:15:04;7.80;;;7.10;;
15102;SDS011;7652;53.584;9.998;2024-02-15T16:18:27;8.47;;;7.30;;
15102;SDS011;7652;53.584;9.998;2024-02-15T16:21:49;8.13;;;7.40;;
15102;SDS011;7652;53.584;9.998;2024-02-15T16:25:11;8.20;;;6.70;;
15102;SDS011;7652;53.584;9.998;2024-02-15T16:28:33;9.90;;;7.60;;
15102;SDS011;7652;53.584;9.998;2024-02-15T16:31:55;8.23;;;7.40;;
15102;SDS011;7652;53.584;9.998;2024-02-15T16:35:16;7.93;;;7.07;;
15102;SDS011;7652;53.584;9.998;2024-02-15T16:38:41;8.47;;;7.30;;
15102;SDS011;7652;53.584;9.998;2024-02-15T16:42:02;7.63;;;6.90;;
15102;SDS011;7652;53.584;9.998;2024-02-15T16:45:24;8.80;;;6.60;;
15102;SDS011;7652;53.584;9.998;2024-02-15T16:48:45;8.80;;;6.70;;
15102;SDS011;7652;53.584;9.998;2024-02-15T16:52:08;7.60;;;6.80;;
15102;SDS011;7652;53.584;9.998;2024-02-15T16:55:31;7.83;;;6.63;;
15102;SDS011;7652;53.584;9.998;2024-02-15T16:58:54;6.77;;;6.13;;
15102;SDS011;7652;53.584;9.998;2024-02-15T17:02:16;6.90;;;6.20;;
15102;SDS011;7652;53.584;9.998;2024-02-15T17:05:38;7.57;;;6.67;;
15102;SDS011;7652;53.584;9.998;2024-02-15T17:09:01;7.90;;;6.50;;
15102;SDS011;7652;53.584;9.998;2024-02-15T17:12:24;6.63;;;6.13;;
15102;SDS011;7652;53.584;9.998;2024-02-15T17:15:46;6.73;;;6.13;;
15102;SDS011;7652;53.584;9.998;2024-02-15T17:19:08;7.57;;;6.70;;
15102;SDS011;7652;53.584;9.998;2024-02-15T17:22:29;10.67;;;7.43;;
15102;SDS011;7652;53.584;9.998;2024-02-15T17:25:51;10.83;;;7.37;;
15102;SDS011;7652;53.584;9.998;2024-02-15T17:29:15;7.90;;;7.10;;
15102;SDS011;7652;53.584;9.998;2024-02-15T17:32:37;7.77;;;6.97;;
15102;SDS011;7652;53.584;9.998;2024-02-15T17:36:01;9.03;;;8.20;;
15102;SDS011;7652;53.584;9.998;2024-02-15T17:39:23;7.83;;;7.03;;
15102;SDS011;7652;53.584;9.998;2024-02-15T17:42:45;9.90;;;8.27;;
15102;SDS011;7652;53.584;9.998;2024-02-15T17:46:09;8.83;;;8.10;;
15102;SDS011;7652;53.584;9.998;2024-02-15T17:49:30;8.93;;;8.13;;
15102;SDS011;7652;53.584;9.998;2024-02-15T17:52:51;10.53;;;8.27;;
15102;SDS011;7652;53.584;9.998;2024-02-15T17:56:13;8.80;;;7.90;;
15102;SDS011;7652;53.584;9.998;2024-02-15T17:59:34;11.03;;;8.10;;
15102;SDS011;7652;53.584;9.998;2024-02-15T18:02:57;9.70;;;8.00;;
15102;SDS011;7652;53.584;9.998;2024-02-15T18:06:18;11.10;;;9.80;;
15102;SDS011;7652;53.584;9.998;2024-02-15T18:09:41;12.63;;;10.73;;
15102;SDS011;7652;53.584;9.998;2024-02-15T18:13:03;11.50;;;10.00;;
15102;SDS011;7652;53.584;9.998;2024-02-15T18:16:25;12.20;;;11.00;;
15102;SDS011;7652;53.584;9.998;2024-02-15T18:19:48;11.87;;;10.30;;
15102;SDS011;7652;53.584;9.998;2024-02-15T18:23:10;13.73;;;10.37;;
15102;SDS011;7652;53.584;9.998;2024-02-15T18:26:32;12.23;;;11.03;;
15102;SDS011;7652;53.584;9.998;2024-02-15T18:29:54;12.80;;;11.47;;
15102;SDS011;7652;53.584;9.998;2024-02-15T18:33:15;12.57;;;11.37;;
15102;SDS011;7652;53.584;9.998;2024-02-15T18:36:39;13.50;;;11.27;;
15102;SDS011;7652;53.584;9.998;2024-02-15T18:40:01;12.50;;;11.20;;
15102;SDS011;7652;53.584;9.998;2024-02-15T18:43:41;15.80;;;10.83;;
15102;SDS011;7652;53.584;9.998;2024-02-15T18:47:09;14.87;;;11.33;;
15102;SDS011;7652;53.584;9.998;2024-02-15T18:50:31;14.33;;;11.23;;
15102;SDS011;7652;53.584;9.998;2024-02-15T18:53:56;14.27;;;11.17;;
15102;SDS011;7652;53.584;9.998;2024-02-15T18:57:18;12.87;;;10.70;;
15102;SDS011;7652;53.584;9.998;2024-02-15T19:00:40;11.23;;;9.73;;
15102;SDS011;7652;53.584;9.998;2024-02-15T19:04:17;11.37;;;9.83;;
15102;SDS011;7652;53.584;9.998;2024-02-15T19:07:38;10.57;;;9.57;;
15102;SDS011;7652;53.584;9.998;2024-02-15T19:11:01;9.43;;;8.57;;
15102;SDS011;7652;53.584;9.998;2024-02-15T19:14:22;13.73;;;8.60;;
15102;SDS011;7652;53.584;9.998;2024-02-15T19:17:44;9.03;;;8.13;;
15102;SDS011;7652;53.584;9.998;2024-02-15T19:21:06;11.67;;;8.10;;
15102;SDS011;7652;53.584;9.998;2024-02-15T19:24:29;10.03;;;7.70;;
15102;SDS011;7652;53.584;9.998;2024-02-15T19:27:52;10.23;;;7.67;;
15102;SDS011;7652;53.584;9.998;2024-02-15T19:31:13;10.57;;;7.50;;
15102;SDS011;7652;53.584;9.998;2024-02-15T19:34:35;8.87;;;7.23;;
15102;SDS011;7652;53.584;9.998;2024-02-15T19:37:56;8.43;;;7.20;;
15102;SDS011;7652;53.584;9.998;2024-02-15T19:41:18;8.77;;;6.53;;
15102;SDS011;7652;53.584;9.998;2024-02-15T19:44:42;7.40;;;6.63;;
15102;SDS011;7652;53.584;9.998;2024-02-15T19:48:06;11.10;;;6.37;;
15102;SDS011;7652;53.584;9.998;2024-02-15T19:51:29;7.80;;;6.63;;
15102;SDS011;7652;53.584;9.998;2024-02-15T19:54:50;8.83;;;6.70;;
15102;SDS011;7652;53.584;9.998;2024-02-15T19:58:12;6.63;;;6.03;;
15102;SDS011;7652;53.584;9.998;2024-02-15T20:01:35;8.60;;;6.50;;
15102;SDS011;7652;53.584;9.998;2024-02-15T20:04:57;7.07;;;5.80;;
15102;SDS011;7652;53.584;9.998;2024-02-15T20:08:19;10.50;;;6.37;;
15102;SDS011;7652;53.584;9.998;2024-02-15T20:11:41;8.07;;;6.40;;
15102;SDS011;7652;53.584;9.998;2024-02-15T20:15:02;6.93;;;6.10;;
15102;SDS011;7652;53.584;9.998;2024-02-15T20:18:29;8.23;;;5.93;;
15102;SDS011;7652;53.584;9.998;2024-02-15T20:21:54;7.57;;;5.67;;
15102;SDS011;7652;53.584;9.998;2024-02-15T20:25:15;7.73;;;5.33;;